Terminal Aerodrome Forecast
Issued by NWS Blacksburg, VA

Current Version | Previous Version | Text Only | Print | Product List | Glossary Off
Versions: 1 2 3 4 5 6 7 8 9 10 11 12 13 14 15 16 17 18 19 20 21 22 23 24 25 26 27 28 29 30 31 32 33 34 35 36

000
FTUS41 KRNK 202320
TAFBLF
TAF
KBLF 202320Z 2100/2124 29006KT P6SM VCTS SCT040CB BKN080
     FM210200 26005KT P6SM -SHRA BKN060
     FM210400 27003KT P6SM OVC035
     FM210600 27003KT 4SM BR SCT002 OVC015
      TEMPO 2109/2112 1SM BR OVC002
     FM211500 29006KT P6SM -SHRA OVC040=

USA.gov is the U.S. government's official web portal to all federal, state and local government web resources and services.